Time;durP1;ratioP1;P1;durP2;ratioP2;P2;SDS_P1;SDS_P2;PMS_P1;PMS_P2;Temp;Humidity;BMP_temperature;BMP_pressure;BME280_temperature;BME280_humidity;BME280_pressure;Samples;Min_cycle;Max_cycle;Signal;HPM_P1;HPM_P2
2022/01/28 00:00:04;;;;;;;0.40;0.20;;;1.80;99.90;;;;;;4994975;28;20796;-79
2022/01/28 00:04:58;;;;;;;0.40;0.20;;;1.90;99.90;;;;;;4994682;28;20390;-78
2022/01/28 00:07:24;;;;;;;0.70;0.70;;;1.90;99.90;;;;;;4993571;28;20418;-78
2022/01/28 00:09:49;;;;;;;0.90;0.90;;;1.90;99.90;;;;;;4994616;28;20414;-78
2022/01/28 00:12:15;;;;;;;0.70;0.60;;;1.90;99.90;;;;;;4993981;28;20392;-78
2022/01/28 00:36:42;;;;;;;0.40;0.20;;;2.40;99.90;;;;;;4993523;28;20389;-75
2022/01/28 00:39:08;;;;;;;1.20;1.10;;;2.40;99.90;;;;;;4994008;28;20890;-78
2022/01/28 00:41:34;;;;;;;0.40;0.20;;;2.40;99.90;;;;;;4993340;28;20406;-78
2022/01/28 00:43:59;;;;;;;0.40;0.30;;;2.50;99.90;;;;;;4993972;28;20390;-78
2022/01/28 00:46:25;;;;;;;0.40;0.20;;;2.30;99.90;;;;;;4993920;28;20450;-78
2022/01/28 00:48:51;;;;;;;0.40;0.20;;;2.60;99.90;;;;;;4993487;28;20525;-78
2022/01/28 00:51:16;;;;;;;0.40;0.20;;;2.60;99.90;;;;;;4994006;28;20386;-78
2022/01/28 00:53:42;;;;;;;0.40;0.20;;;2.70;99.90;;;;;;4993122;28;20395;-78
2022/01/28 00:56:08;;;;;;;0.40;0.30;;;2.80;99.90;;;;;;4992604;28;20937;-78
2022/01/28 00:58:34;;;;;;;0.40;0.20;;;2.80;99.90;;;;;;4987096;28;20431;-78
2022/01/28 01:00:59;;;;;;;0.70;0.70;;;2.90;99.90;;;;;;4973540;28;20438;-78
2022/01/28 01:03:25;;;;;;;0.40;0.20;;;2.80;99.90;;;;;;4972627;28;20498;-78
2022/01/28 01:05:50;;;;;;;0.40;0.30;;;2.80;99.90;;;;;;4972433;28;20482;-78
2022/01/28 01:08:16;;;;;;;0.40;0.20;;;2.60;99.90;;;;;;4974064;28;20923;-78
2022/01/28 01:10:42;;;;;;;0.60;0.60;;;2.50;99.90;;;;;;4974201;28;20384;-78
2022/01/28 01:13:08;;;;;;;1.20;1.07;;;2.40;99.90;;;;;;4973077;28;20388;-78
2022/01/28 01:15:38;;;;;;;0.40;0.28;;;2.30;99.90;;;;;;4972956;28;20479;-78
2022/01/28 01:18:21;;;;;;;0.40;0.30;;;2.20;99.90;;;;;;4973661;28;20439;-78
2022/01/28 01:23:24;;;;;;;0.70;0.50;;;1.80;99.90;;;;;;4973251;28;20377;-78
2022/01/28 01:26:12;;;;;;;1.30;0.80;;;1.60;99.90;;;;;;4973849;28;20804;-78
2022/01/28 01:28:39;;;;;;;2.10;0.80;;;1.60;99.90;;;;;;4973662;28;20420;-78
2022/01/28 01:31:09;;;;;;;2.80;2.60;;;1.50;99.90;;;;;;4972674;28;20459;-78
2022/01/28 01:33:47;;;;;;;0.50;0.50;;;1.50;99.90;;;;;;4974052;28;20476;-78
2022/01/28 01:36:12;;;;;;;0.90;0.70;;;1.40;99.90;;;;;;4973031;28;20429;-78
2022/01/28 01:38:40;;;;;;;0.60;0.60;;;1.40;99.90;;;;;;4973881;28;20392;-78
2022/01/28 01:41:12;;;;;;;0.50;0.50;;;1.40;99.90;;;;;;4973088;28;20414;-76
2022/01/28 01:44:06;;;;;;;0.50;0.45;;;1.40;99.90;;;;;;4973895;28;20412;-79
2022/01/28 01:46:46;;;;;;;1.20;0.50;;;1.30;99.90;;;;;;4973186;28;20416;-79
2022/01/28 01:52:05;;;;;;;0.40;0.20;;;1.40;99.90;;;;;;4973606;28;20394;-78
2022/01/28 01:54:35;;;;;;;1.40;1.10;;;1.40;99.90;;;;;;4971354;28;20477;-79
2022/01/28 01:57:01;;;;;;;0.40;0.30;;;1.40;99.90;;;;;;4973355;28;20492;-79
2022/01/28 01:59:27;;;;;;;0.40;0.30;;;1.50;99.90;;;;;;4985780;28;20391;-79
2022/01/28 02:01:52;;;;;;;0.90;0.50;;;1.60;99.90;;;;;;4993092;28;20391;-78
2022/01/28 02:04:18;;;;;;;0.40;0.20;;;1.70;99.90;;;;;;4992353;28;20465;-76
2022/01/28 02:06:45;;;;;;;0.40;0.20;;;1.70;99.90;;;;;;4991946;28;20433;-78
2022/01/28 02:09:11;;;;;;;0.90;0.60;;;1.60;99.90;;;;;;4992595;28;20533;-77
2022/01/28 02:11:39;;;;;;;0.90;0.90;;;1.60;99.90;;;;;;4991672;28;20485;-78
2022/01/28 02:14:05;;;;;;;1.10;1.00;;;1.70;99.90;;;;;;4992364;28;20412;-78
2022/01/28 02:16:30;;;;;;;0.40;0.30;;;1.80;99.90;;;;;;4991691;28;20379;-78
2022/01/28 02:18:57;;;;;;;0.70;0.70;;;1.70;99.90;;;;;;4991757;28;20746;-79
2022/01/28 02:21:23;;;;;;;1.20;0.60;;;1.70;99.90;;;;;;4992399;28;20390;-78
2022/01/28 02:23:54;;;;;;;0.40;0.30;;;1.70;99.90;;;;;;4990322;28;20770;-78
2022/01/28 02:26:19;;;;;;;0.70;0.70;;;1.70;99.90;;;;;;4992280;28;20422;-78
2022/01/28 02:28:50;;;;;;;0.70;0.70;;;1.80;99.90;;;;;;4991265;28;20810;-78
2022/01/28 02:31:22;;;;;;;0.40;0.30;;;1.90;99.90;;;;;;4992109;28;20442;-78
2022/01/28 02:33:50;;;;;;;0.40;0.20;;;2.00;99.90;;;;;;4991515;28;20461;-78
2022/01/28 02:36:16;;;;;;;0.40;0.20;;;1.80;99.90;;;;;;4991946;28;20395;-78
2022/01/28 02:38:42;;;;;;;1.47;1.37;;;1.90;99.90;;;;;;4991491;28;20901;-75
2022/01/28 02:41:08;;;;;;;1.40;1.30;;;1.90;99.90;;;;;;4991831;28;20871;-78
2022/01/28 02:46:26;;;;;;;0.40;0.30;;;1.90;99.90;;;;;;4991672;28;20979;-78
2022/01/28 03:04:05;;;;;;;0.40;0.20;;;2.20;99.90;;;;;;4893488;29;20403;-79
2022/01/28 03:25:39;;;;;;;;;;;;;;;;;;;;;
2022/01/28 03:56:24;;;;;;;0.40;0.20;;;1.80;99.90;;;;;;4880365;29;20408;-79
2022/01/28 03:58:53;;;;;;;0.40;0.20;;;1.70;99.90;;;;;;4891861;28;20418;-79
2022/01/28 07:35:41;;;;;;;0.50;0.50;;;2.30;99.90;;;;;;5278380;22;20429;-76
2022/01/28 07:38:07;;;;;;;0.40;0.30;;;2.20;99.90;;;;;;5024104;28;20419;-77
2022/01/28 07:40:33;;;;;;;0.40;0.30;;;2.30;99.90;;;;;;5034543;28;20391;-77
2022/01/28 07:42:59;;;;;;;0.40;0.20;;;2.20;99.90;;;;;;5037770;28;20909;-77
2022/01/28 07:45:25;;;;;;;0.40;0.30;;;2.40;99.90;;;;;;5043260;28;20859;-77
2022/01/28 07:47:51;;;;;;;0.40;0.30;;;2.40;99.90;;;;;;5030844;28;20379;-77
2022/01/28 07:50:17;;;;;;;0.40;0.40;;;2.30;99.90;;;;;;5031559;28;20401;-76
2022/01/28 07:52:43;;;;;;;0.40;0.20;;;2.30;99.90;;;;;;5031465;28;20501;-77
2022/01/28 07:55:14;;;;;;;0.40;0.20;;;2.30;99.90;;;;;;5030950;28;20701;-77
2022/01/28 07:57:41;;;;;;;0.40;0.20;;;2.20;99.90;;;;;;5030405;28;20875;-77
2022/01/28 08:00:08;;;;;;;0.80;0.80;;;2.10;99.90;;;;;;5031151;28;20394;-77
2022/01/28 08:02:35;;;;;;;0.50;0.50;;;2.20;99.90;;;;;;5030834;28;20717;-77
2022/01/28 08:05:01;;;;;;;0.40;0.28;;;2.20;99.90;;;;;;5029938;28;20395;-77
2022/01/28 08:07:27;;;;;;;0.40;0.30;;;2.30;99.90;;;;;;5027932;28;20402;-77
2022/01/28 08:09:52;;;;;;;0.40;0.20;;;2.40;99.90;;;;;;5035717;28;20393;-78
2022/01/28 08:12:18;;;;;;;0.60;0.60;;;2.20;99.90;;;;;;5038359;28;20876;-78
2022/01/28 08:14:45;;;;;;;0.40;0.20;;;2.40;99.90;;;;;;5037883;28;20454;-78
2022/01/28 08:17:11;;;;;;;0.40;0.20;;;2.40;99.90;;;;;;5037129;28;20406;-77
2022/01/28 08:19:37;;;;;;;0.40;0.30;;;2.50;99.90;;;;;;5039823;28;20382;-77
2022/01/28 08:22:04;;;;;;;1.20;0.90;;;2.60;99.90;;;;;;5038481;28;20723;-78
2022/01/28 08:24:29;;;;;;;0.40;0.20;;;2.70;99.90;;;;;;5040893;28;20511;-79
2022/01/28 08:26:55;;;;;;;0.40;0.20;;;2.70;99.90;;;;;;5035806;28;20486;-78
2022/01/28 08:29:21;;;;;;;0.40;0.20;;;2.50;99.90;;;;;;5032527;28;21012;-78
2022/01/28 08:31:47;;;;;;;0.90;0.50;;;2.40;99.90;;;;;;5037938;28;20418;-78
2022/01/28 08:34:13;;;;;;;1.20;1.00;;;2.60;99.90;;;;;;5037238;28;20392;-79
2022/01/28 08:36:39;;;;;;;0.40;0.40;;;2.60;99.90;;;;;;5049930;28;20404;-78
2022/01/28 08:39:06;;;;;;;0.40;0.20;;;2.60;99.90;;;;;;5057012;28;20385;-79
2022/01/28 08:41:34;;;;;;;0.80;0.80;;;2.50;99.90;;;;;;5060976;28;20494;-79
2022/01/28 08:44:00;;;;;;;0.50;0.40;;;2.50;99.90;;;;;;5057033;28;20713;-78
2022/01/28 08:46:26;;;;;;;0.40;0.20;;;2.50;99.90;;;;;;5060296;28;20385;-78
2022/01/28 08:48:52;;;;;;;0.40;0.38;;;2.50;99.90;;;;;;5058350;28;20848;-77
2022/01/28 08:51:18;;;;;;;0.40;0.30;;;2.50;99.90;;;;;;5057109;28;20382;-77
2022/01/28 08:53:43;;;;;;;0.40;0.20;;;2.70;99.90;;;;;;5059337;28;20733;-77
2022/01/28 08:56:09;;;;;;;0.40;0.30;;;2.70;99.90;;;;;;5060668;28;20897;-77
2022/01/28 08:58:35;;;;;;;0.40;0.30;;;2.80;99.90;;;;;;5060234;28;20441;-78
2022/01/28 09:01:01;;;;;;;0.70;0.50;;;2.90;99.90;;;;;;5057181;28;20400;-78
2022/01/28 09:03:27;;;;;;;0.40;0.20;;;2.90;99.90;;;;;;5060893;28;20380;-78
2022/01/28 09:05:53;;;;;;;0.52;0.52;;;3.00;99.90;;;;;;5038977;28;20947;-77
2022/01/28 09:08:19;;;;;;;0.40;0.40;;;3.00;99.90;;;;;;5058869;28;20415;-77
2022/01/28 09:10:56;;;;;;;0.80;0.80;;;3.00;99.90;;;;;;5054059;28;20874;-77
2022/01/28 09:13:24;;;;;;;0.40;0.28;;;3.20;99.90;;;;;;5058686;28;20454;-78
2022/01/28 09:15:52;;;;;;;0.40;0.20;;;3.10;99.90;;;;;;5058304;28;20476;-78
2022/01/28 09:18:19;;;;;;;0.60;0.60;;;3.10;99.90;;;;;;5058851;28;20388;-78
2022/01/28 09:20:46;;;;;;;0.40;0.20;;;3.00;99.90;;;;;;5059462;28;20372;-78
2022/01/28 09:23:12;;;;;;;0.40;0.20;;;3.00;99.90;;;;;;5060680;28;20861;-77
2022/01/28 09:25:38;;;;;;;0.40;0.20;;;2.90;99.90;;;;;;5058316;28;20378;-78
2022/01/28 09:28:04;;;;;;;0.40;0.30;;;2.70;99.90;;;;;;5037646;28;20389;-77
2022/01/28 09:30:31;;;;;;;0.50;0.50;;;2.80;99.90;;;;;;5063103;28;20377;-78
2022/01/28 09:32:58;;;;;;;0.50;0.40;;;2.90;99.90;;;;;;5061888;28;20796;-76
2022/01/28 09:35:24;;;;;;;0.40;0.20;;;2.90;99.90;;;;;;5062765;28;20415;-77
2022/01/28 09:37:51;;;;;;;1.27;1.17;;;2.90;99.90;;;;;;5060077;28;20808;-77
2022/01/28 09:40:17;;;;;;;0.40;0.20;;;3.00;99.90;;;;;;5059048;28;20996;-77
2022/01/28 09:42:45;;;;;;;0.40;0.20;;;3.40;99.90;;;;;;5064877;28;20384;-78
2022/01/28 09:45:17;;;;;;;0.40;0.30;;;3.40;99.90;;;;;;5060753;28;20519;-77
2022/01/28 09:47:46;;;;;;;0.40;0.20;;;3.60;99.90;;;;;;5027559;28;20403;-76
2022/01/28 09:50:12;;;;;;;0.40;0.20;;;3.70;99.90;;;;;;5056560;28;20396;-77
2022/01/28 09:52:37;;;;;;;0.60;0.60;;;3.60;99.90;;;;;;5043185;28;20761;-77
2022/01/28 09:55:03;;;;;;;0.40;0.20;;;3.50;99.90;;;;;;5061841;28;20440;-76
2022/01/28 09:57:32;;;;;;;0.40;0.20;;;3.50;99.90;;;;;;5060978;28;20780;-76
2022/01/28 09:59:58;;;;;;;0.40;0.20;;;3.40;99.90;;;;;;5059892;28;20384;-76
2022/01/28 10:03:06;;;;;;;0.40;0.20;;;3.20;99.90;;;;;;5060758;28;20398;-77
2022/01/28 10:05:36;;;;;;;1.00;0.60;;;3.30;99.90;;;;;;5043784;28;20451;-76
2022/01/28 10:08:06;;;;;;;0.40;0.30;;;3.20;99.90;;;;;;5060728;28;20724;-78
2022/01/28 10:10:42;;;;;;;0.40;0.20;;;3.20;99.90;;;;;;5040255;28;20732;-75
2022/01/28 10:13:16;;;;;;;0.60;0.60;;;3.30;99.90;;;;;;5060318;28;20407;-76
2022/01/28 10:16:07;;;;;;;0.40;0.30;;;3.40;99.90;;;;;;5034734;28;20478;-78
2022/01/28 10:18:48;;;;;;;0.60;0.60;;;3.50;99.90;;;;;;5062034;28;20388;-76
2022/01/28 10:21:28;;;;;;;0.40;0.20;;;3.50;99.90;;;;;;5060665;28;20433;-77
2022/01/28 10:24:03;;;;;;;0.40;0.30;;;3.40;99.90;;;;;;5063446;28;20483;-77
2022/01/28 10:26:33;;;;;;;0.40;0.20;;;3.70;99.90;;;;;;5059486;28;20452;-78
2022/01/28 10:29:00;;;;;;;0.40;0.30;;;3.80;99.90;;;;;;5059464;28;20472;-78
2022/01/28 10:31:36;;;;;;;0.40;0.20;;;3.80;99.90;;;;;;5059803;28;20381;-78
2022/01/28 10:34:23;;;;;;;0.40;0.20;;;3.70;99.90;;;;;;5062042;28;20384;-78
2022/01/28 10:36:51;;;;;;;0.40;0.30;;;4.00;99.90;;;;;;5062901;28;20759;-78
2022/01/28 10:39:18;;;;;;;0.40;0.30;;;3.80;99.90;;;;;;5032856;28;20491;-77
2022/01/28 10:41:53;;;;;;;0.60;0.60;;;4.00;99.90;;;;;;5062193;28;20454;-77
2022/01/28 10:44:19;;;;;;;0.70;0.70;;;3.80;99.90;;;;;;5054379;28;20398;-76
2022/01/28 10:46:58;;;;;;;0.40;0.20;;;4.00;99.90;;;;;;5062297;28;20397;-78
2022/01/28 10:49:33;;;;;;;0.40;0.20;;;4.30;99.90;;;;;;5043016;28;20426;-76
2022/01/28 10:52:06;;;;;;;0.40;0.30;;;4.00;99.90;;;;;;5052963;28;20896;-75
2022/01/28 10:54:32;;;;;;;0.70;0.60;;;3.90;99.90;;;;;;5052325;28;20459;-76
2022/01/28 10:57:01;;;;;;;0.40;0.20;;;3.90;99.90;;;;;;5059750;28;20383;-77
2022/01/28 10:59:30;;;;;;;0.53;0.50;;;3.90;99.90;;;;;;5057647;28;20378;-78
2022/01/28 11:01:57;;;;;;;1.20;1.10;;;3.70;99.90;;;;;;5059115;28;20782;-77
2022/01/28 11:04:24;;;;;;;0.40;0.20;;;3.70;99.90;;;;;;5054969;28;20956;-77
2022/01/28 11:06:52;;;;;;;0.40;0.30;;;4.10;99.90;;;;;;5056143;28;20443;-78
2022/01/28 11:09:20;;;;;;;0.40;0.20;;;4.10;99.90;;;;;;5057266;28;20401;-78
2022/01/28 11:11:47;;;;;;;0.60;0.60;;;4.20;99.90;;;;;;5063326;28;20952;-78
2022/01/28 11:14:13;;;;;;;1.20;1.00;;;4.30;99.90;;;;;;5056746;28;20776;-78
2022/01/28 11:16:39;;;;;;;1.40;1.30;;;4.30;99.90;;;;;;5060802;28;20368;-76
2022/01/28 11:19:09;;;;;;;0.60;0.60;;;4.20;99.90;;;;;;5056426;28;20442;-77
2022/01/28 11:21:53;;;;;;;1.00;0.90;;;4.20;99.90;;;;;;5055807;28;20384;-77
2022/01/28 11:24:54;;;;;;;0.40;0.20;;;4.10;99.90;;;;;;5056723;28;21443;-77
2022/01/28 11:27:29;;;;;;;0.40;0.20;;;4.10;99.90;;;;;;5055829;28;20767;-77
2022/01/28 11:30:15;;;;;;;0.80;0.80;;;4.10;99.90;;;;;;5058448;28;20411;-77
2022/01/28 11:33:02;;;;;;;0.40;0.30;;;4.40;99.90;;;;;;5057944;28;20490;-77
2022/01/28 11:36:01;;;;;;;0.40;0.30;;;4.80;99.90;;;;;;5059446;28;20414;-77
2022/01/28 11:38:27;;;;;;;0.50;0.50;;;4.70;99.90;;;;;;5053516;28;20738;-78
2022/01/28 11:41:20;;;;;;;0.40;0.22;;;5.20;99.90;;;;;;5053870;28;20393;-76
2022/01/28 11:43:50;;;;;;;1.15;0.90;;;4.80;99.90;;;;;;5059124;28;20470;-77
2022/01/28 11:46:36;;;;;;;0.40;0.30;;;4.30;99.90;;;;;;5057473;28;20400;-77
2022/01/28 11:49:03;;;;;;;0.40;0.20;;;4.40;99.90;;;;;;5035181;28;20405;-77
2022/01/28 11:51:38;;;;;;;0.70;0.60;;;4.50;99.90;;;;;;5060701;28;20857;-77
2022/01/28 11:54:06;;;;;;;0.40;0.40;;;4.40;99.90;;;;;;5055262;28;20894;-78
2022/01/28 11:56:32;;;;;;;0.80;0.80;;;4.40;99.90;;;;;;5060681;28;20456;-78
2022/01/28 11:59:04;;;;;;;0.40;0.30;;;4.50;99.90;;;;;;5058546;28;20377;-78
2022/01/28 12:01:56;;;;;;;0.40;0.20;;;4.50;99.90;;;;;;5060164;28;20380;-78
2022/01/28 12:04:27;;;;;;;0.47;0.47;;;5.00;99.90;;;;;;5055623;28;20464;-78
2022/01/28 12:07:04;;;;;;;0.40;0.40;;;5.10;99.90;;;;;;5057672;28;20408;-78
2022/01/28 12:09:33;;;;;;;0.40;0.20;;;5.10;99.90;;;;;;5059177;28;20377;-78
2022/01/28 12:12:00;;;;;;;0.57;0.52;;;5.90;99.90;;;;;;5058402;28;20467;-78
2022/01/28 12:15:06;;;;;;;0.40;0.40;;;6.50;99.90;;;;;;5060194;28;20496;-78
2022/01/28 12:17:32;;;;;;;0.40;0.30;;;6.60;99.90;;;;;;5056314;28;20930;-78
2022/01/28 12:20:19;;;;;;;0.40;0.20;;;6.30;99.90;;;;;;5060540;28;20487;-78
2022/01/28 12:23:09;;;;;;;0.60;0.60;;;6.10;99.90;;;;;;5058748;28;20384;-78
2022/01/28 12:25:41;;;;;;;0.52;0.52;;;6.10;99.90;;;;;;5059186;28;20385;-78
2022/01/28 12:28:32;;;;;;;0.40;0.20;;;6.60;99.90;;;;;;5057568;28;20390;-77
2022/01/28 12:31:13;;;;;;;0.40;0.20;;;6.70;99.90;;;;;;5047729;28;20400;-78
2022/01/28 12:33:42;;;;;;;0.50;0.50;;;7.60;99.90;;;;;;5041033;28;20938;-78
2022/01/28 12:36:14;;;;;;;0.60;0.55;;;8.00;99.90;;;;;;5055404;28;20861;-76
2022/01/28 12:42:23;;;;;;;0.63;0.60;;;8.80;99.90;;;;;;5034181;28;20383;-77
2022/01/28 12:44:56;;;;;;;0.40;0.30;;;8.50;99.90;;;;;;5056732;28;20439;-77
2022/01/28 12:47:24;;;;;;;0.43;0.30;;;7.50;99.90;;;;;;5057546;28;20447;-76
2022/01/28 12:50:03;;;;;;;0.40;0.30;;;8.30;99.90;;;;;;5058618;28;20406;-76
2022/01/28 12:52:31;;;;;;;1.50;0.50;;;9.40;99.90;;;;;;5032328;28;20429;-77
2022/01/28 12:54:57;;;;;;;0.40;0.40;;;9.40;99.90;;;;;;5061457;28;20873;-76
2022/01/28 12:57:23;;;;;;;0.40;0.30;;;9.30;99.90;;;;;;5060416;28;20376;-77
2022/01/28 12:59:50;;;;;;;0.40;0.30;;;9.50;99.90;;;;;;5062916;28;20716;-77
2022/01/28 13:02:17;;;;;;;0.40;0.30;;;8.10;99.90;;;;;;5060219;28;20731;-77
2022/01/28 13:10:39;;;;;;;0.40;0.20;;;7.50;99.90;;;;;;5061466;28;20377;-77
2022/01/28 13:13:08;;;;;;;0.40;0.20;;;7.00;99.90;;;;;;5059390;28;20472;-75
2022/01/28 13:15:34;;;;;;;0.40;0.20;;;6.90;99.90;;;;;;5061932;28;20741;-77
2022/01/28 13:18:02;;;;;;;0.43;0.33;;;7.00;99.90;;;;;;5061575;28;20433;-77
2022/01/28 13:20:38;;;;;;;0.40;0.40;;;7.30;99.90;;;;;;5042616;28;20393;-77
2022/01/28 13:23:05;;;;;;;0.40;0.30;;;6.70;99.90;;;;;;5056919;28;20398;-77
2022/01/28 13:25:32;;;;;;;0.50;0.50;;;6.70;99.90;;;;;;5040436;28;20441;-77
2022/01/28 13:27:59;;;;;;;0.40;0.30;;;7.20;99.90;;;;;;5059475;28;20682;-77
2022/01/28 13:30:27;;;;;;;0.40;0.20;;;7.00;99.90;;;;;;5041545;28;20456;-77
2022/01/28 13:33:12;;;;;;;0.40;0.30;;;6.70;99.90;;;;;;5057000;28;20483;-76
2022/01/28 13:35:39;;;;;;;0.40;0.20;;;6.50;99.90;;;;;;5057030;28;20394;-77
2022/01/28 13:38:20;;;;;;;0.40;0.30;;;6.70;99.90;;;;;;5058541;28;20881;-77
2022/01/28 13:40:46;;;;;;;0.40;0.20;;;6.90;99.90;;;;;;5059071;28;20389;-77
2022/01/28 13:43:23;;;;;;;0.80;0.80;;;6.90;99.90;;;;;;5057718;28;20458;-77
2022/01/28 13:45:58;;;;;;;0.50;0.50;;;6.80;99.90;;;;;;5057325;28;20972;-76
2022/01/28 13:48:38;;;;;;;0.40;0.20;;;6.90;99.90;;;;;;5056786;28;20460;-75
2022/01/28 13:51:12;;;;;;;0.80;0.70;;;6.90;99.90;;;;;;5059762;28;20896;-75
2022/01/28 13:56:43;;;;;;;0.40;0.30;;;7.10;99.90;;;;;;5056224;28;20379;-76
2022/01/28 13:59:25;;;;;;;0.40;0.30;;;7.40;99.90;;;;;;5040591;28;20443;-76
2022/01/28 14:01:59;;;;;;;0.50;0.50;;;7.80;99.90;;;;;;5056777;28;20431;-76
2022/01/28 14:04:32;;;;;;;0.40;0.20;;;7.60;99.90;;;;;;5032950;28;20397;-76
2022/01/28 14:07:22;;;;;;;0.40;0.30;;;7.40;99.90;;;;;;5042151;28;20821;-77
2022/01/28 14:09:54;;;;;;;0.40;0.30;;;7.40;99.90;;;;;;5059614;28;20381;-76
2022/01/28 14:12:43;;;;;;;4.40;1.00;;;7.00;99.90;;;;;;5041225;28;21672;-77
2022/01/28 14:15:42;;;;;;;0.40;0.30;;;6.90;99.90;;;;;;5055059;28;20378;-78
2022/01/28 14:18:08;;;;;;;1.50;0.80;;;6.90;99.90;;;;;;5034364;28;20457;-76
2022/01/28 14:20:35;;;;;;;0.40;0.20;;;6.90;99.90;;;;;;5036963;28;20421;-77
2022/01/28 14:23:00;;;;;;;0.40;0.40;;;6.80;99.90;;;;;;5058973;28;20383;-77
2022/01/28 14:25:26;;;;;;;0.40;0.30;;;6.50;99.90;;;;;;5054403;28;20382;-77
2022/01/28 14:28:11;;;;;;;1.10;1.10;;;6.60;99.90;;;;;;5060378;28;20478;-77
2022/01/28 14:30:42;;;;;;;0.80;0.60;;;6.60;99.90;;;;;;5060858;28;20930;-77
2022/01/28 14:33:10;;;;;;;0.40;0.30;;;6.50;99.90;;;;;;5049671;28;20417;-77
2022/01/28 14:35:37;;;;;;;0.45;0.45;;;6.60;99.90;;;;;;5060170;28;20382;-77
2022/01/28 14:38:06;;;;;;;0.60;0.50;;;6.70;99.90;;;;;;5061876;28;20409;-77
2022/01/28 14:40:32;;;;;;;0.40;0.20;;;6.70;99.90;;;;;;5060257;28;20375;-77
2022/01/28 14:42:58;;;;;;;0.40;0.20;;;6.70;99.90;;;;;;5059552;28;20389;-77
2022/01/28 14:45:26;;;;;;;0.80;0.80;;;6.90;99.90;;;;;;5060442;28;20397;-78
2022/01/28 14:47:52;;;;;;;0.40;0.40;;;6.80;99.90;;;;;;5058142;28;20388;-77
2022/01/28 14:50:18;;;;;;;0.40;0.30;;;6.70;99.90;;;;;;5038139;28;20446;-77
2022/01/28 14:52:44;;;;;;;0.40;0.30;;;6.70;99.90;;;;;;5038950;28;20405;-77
2022/01/28 14:55:10;;;;;;;0.40;0.20;;;6.90;99.90;;;;;;5062578;28;20391;-77
2022/01/28 14:57:36;;;;;;;0.40;0.20;;;7.00;99.90;;;;;;5055619;28;20378;-77
2022/01/28 15:00:03;;;;;;;0.40;0.30;;;7.00;99.90;;;;;;5060829;28;20394;-77
2022/01/28 15:02:31;;;;;;;0.70;0.50;;;6.70;99.90;;;;;;5042588;28;20387;-76
2022/01/28 15:04:59;;;;;;;0.40;0.40;;;6.70;99.90;;;;;;5060755;28;20727;-78
2022/01/28 15:07:27;;;;;;;0.40;0.20;;;6.50;99.90;;;;;;5059967;28;20839;-77
2022/01/28 15:09:56;;;;;;;0.40;0.20;;;6.60;99.90;;;;;;5045544;28;20455;-78
2022/01/28 15:12:22;;;;;;;0.40;0.30;;;6.60;99.90;;;;;;5054977;28;20413;-77
2022/01/28 15:14:49;;;;;;;0.40;0.20;;;6.60;99.90;;;;;;5058586;28;20378;-77
2022/01/28 15:17:18;;;;;;;0.40;0.40;;;6.60;99.90;;;;;;5057292;28;20439;-77
2022/01/28 15:19:45;;;;;;;0.50;0.50;;;6.60;99.90;;;;;;5060067;28;20384;-77
2022/01/28 15:22:11;;;;;;;0.43;0.32;;;6.60;99.90;;;;;;5057479;28;20388;-77
2022/01/28 15:24:37;;;;;;;0.40;0.30;;;6.60;99.90;;;;;;5058915;28;20420;-77
2022/01/28 15:27:03;;;;;;;0.40;0.20;;;6.60;99.90;;;;;;5056575;28;20393;-77
2022/01/28 15:37:05;;;;;;;0.43;0.25;;;6.60;99.90;;;;;;5060295;28;20510;-76
2022/01/28 15:39:35;;;;;;;0.40;0.30;;;6.60;99.90;;;;;;5060286;28;20384;-75
2022/01/28 15:42:06;;;;;;;1.00;0.60;;;6.60;99.90;;;;;;5042134;28;20403;-76
2022/01/28 15:44:32;;;;;;;0.40;0.30;;;6.60;99.90;;;;;;5057852;28;20399;-75
2022/01/28 15:46:58;;;;;;;0.40;0.20;;;6.60;99.90;;;;;;5057984;28;20394;-74
2022/01/28 15:49:24;;;;;;;0.70;0.70;;;6.60;99.90;;;;;;5057350;28;20383;-74
2022/01/28 15:51:50;;;;;;;0.60;0.60;;;6.60;99.90;;;;;;5059580;28;20461;-75
2022/01/28 15:54:18;;;;;;;0.40;0.20;;;6.50;99.90;;;;;;5054844;28;20717;-74
2022/01/28 15:56:45;;;;;;;1.50;0.70;;;6.40;99.90;;;;;;5060146;28;20372;-75
2022/01/28 15:59:11;;;;;;;0.40;0.20;;;6.20;99.90;;;;;;5041854;28;20403;-74
2022/01/28 16:01:37;;;;;;;0.40;0.28;;;6.00;99.90;;;;;;5050611;28;21513;-74
2022/01/28 16:04:03;;;;;;;0.40;0.20;;;6.00;99.90;;;;;;5036292;28;20399;-75
2022/01/28 16:06:30;;;;;;;0.50;0.50;;;6.00;99.90;;;;;;5041866;28;20807;-74
2022/01/28 16:08:57;;;;;;;0.40;0.25;;;6.10;99.90;;;;;;5055667;28;20401;-75
2022/01/28 16:11:30;;;;;;;0.40;0.20;;;6.00;99.90;;;;;;5050050;28;20400;-74
2022/01/28 16:14:01;;;;;;;0.90;0.90;;;5.90;99.90;;;;;;5032618;28;20835;-74
2022/01/28 16:19:11;;;;;;;0.40;0.40;;;5.70;99.90;;;;;;5049524;28;20426;-75
2022/01/28 16:21:37;;;;;;;0.40;0.20;;;5.40;99.90;;;;;;5053857;28;20415;-75
2022/01/28 16:24:03;;;;;;;0.40;0.20;;;5.10;99.90;;;;;;5053134;28;20389;-74
2022/01/28 16:26:29;;;;;;;1.50;0.90;;;5.00;99.90;;;;;;5049827;28;20397;-74
2022/01/28 16:28:57;;;;;;;0.40;0.40;;;4.90;99.90;;;;;;5052779;28;20446;-75
2022/01/28 16:31:24;;;;;;;0.40;0.20;;;4.80;99.90;;;;;;5038164;28;20504;-76
2022/01/28 16:33:49;;;;;;;0.40;0.20;;;4.60;99.90;;;;;;5053293;28;20412;-75
2022/01/28 16:36:15;;;;;;;0.40;0.40;;;4.50;99.90;;;;;;5058925;28;20457;-75
2022/01/28 16:38:41;;;;;;;0.70;0.70;;;4.40;99.90;;;;;;5056797;28;20386;-75
2022/01/28 16:41:11;;;;;;;0.40;0.40;;;4.40;99.90;;;;;;5057528;28;20388;-75
2022/01/28 16:43:46;;;;;;;0.40;0.30;;;4.30;99.90;;;;;;5060498;28;21081;-75
2022/01/28 16:46:12;;;;;;;0.40;0.30;;;4.20;99.90;;;;;;5057559;28;20405;-75
2022/01/28 16:48:38;;;;;;;1.70;1.17;;;4.10;99.90;;;;;;5058248;28;20424;-75
2022/01/28 16:51:04;;;;;;;0.40;0.20;;;3.90;99.90;;;;;;5042171;28;20437;-75
2022/01/28 16:53:29;;;;;;;2.70;0.80;;;3.80;99.90;;;;;;5054061;28;20404;-74
2022/01/28 16:55:55;;;;;;;0.40;0.20;;;3.70;99.90;;;;;;5047482;28;20478;-74
2022/01/28 16:58:21;;;;;;;0.40;0.20;;;3.70;99.90;;;;;;5045919;28;20399;-74
2022/01/28 17:00:47;;;;;;;0.40;0.20;;;3.60;99.90;;;;;;5050430;28;20378;-75
2022/01/28 17:03:13;;;;;;;0.40;0.23;;;3.50;99.90;;;;;;5056597;28;20956;-75
2022/01/28 17:05:39;;;;;;;0.40;0.20;;;3.50;99.90;;;;;;5057196;28;20385;-75
2022/01/28 17:08:05;;;;;;;0.40;0.20;;;3.50;99.90;;;;;;5040103;28;20927;-75
2022/01/28 17:10:37;;;;;;;0.40;0.20;;;3.50;99.90;;;;;;5052749;28;20384;-74
2022/01/28 17:13:08;;;;;;;0.40;0.22;;;3.50;99.90;;;;;;5051158;28;20496;-75
2022/01/28 17:15:35;;;;;;;0.70;0.70;;;3.60;99.90;;;;;;5053639;28;20470;-75
2022/01/28 17:18:01;;;;;;;0.40;0.20;;;3.50;99.90;;;;;;5040211;28;20873;-74
2022/01/28 17:20:27;;;;;;;0.40;0.20;;;3.40;99.90;;;;;;5055100;28;20404;-75
2022/01/28 17:22:53;;;;;;;0.40;0.20;;;3.30;99.90;;;;;;5052947;28;20403;-75
2022/01/28 17:25:19;;;;;;;0.40;0.20;;;3.20;99.90;;;;;;5054011;28;20750;-75
2022/01/28 17:27:46;;;;;;;0.40;0.20;;;3.30;99.90;;;;;;5032541;28;20396;-74
2022/01/28 17:30:12;;;;;;;0.40;0.30;;;3.30;99.90;;;;;;5047871;28;20394;-75
2022/01/28 17:32:38;;;;;;;1.00;1.00;;;3.30;99.90;;;;;;5049546;28;21082;-75
2022/01/28 17:35:07;;;;;;;0.40;0.28;;;3.30;99.90;;;;;;5055633;28;20387;-76
2022/01/28 17:37:33;;;;;;;0.40;0.20;;;3.30;99.90;;;;;;5054791;28;20443;-75
2022/01/28 17:40:04;;;;;;;0.60;0.60;;;3.30;99.90;;;;;;5059315;28;20850;-76
2022/01/28 17:42:31;;;;;;;0.40;0.30;;;3.30;99.90;;;;;;5053222;28;20390;-75
2022/01/28 17:44:57;;;;;;;0.60;0.60;;;3.40;99.90;;;;;;5056809;28;20426;-76
2022/01/28 17:47:22;;;;;;;0.40;0.40;;;3.20;99.90;;;;;;5052625;28;20421;-76
2022/01/28 17:49:48;;;;;;;0.60;0.60;;;3.30;99.90;;;;;;5056385;28;20454;-76
2022/01/28 17:52:15;;;;;;;0.90;0.90;;;3.20;99.90;;;;;;5052958;28;20409;-75
2022/01/28 17:54:41;;;;;;;1.00;1.00;;;3.30;99.90;;;;;;5052574;28;20381;-75
2022/01/28 17:57:07;;;;;;;0.40;0.20;;;3.30;99.90;;;;;;5054548;28;20405;-75
2022/01/28 17:59:33;;;;;;;0.40;0.30;;;3.20;99.90;;;;;;5056200;28;20385;-76
2022/01/28 18:01:58;;;;;;;0.40;0.20;;;3.20;99.90;;;;;;5059485;28;20488;-75
2022/01/28 18:04:24;;;;;;;0.40;0.40;;;3.10;99.90;;;;;;5061497;28;20395;-75
2022/01/28 18:06:50;;;;;;;0.40;0.20;;;3.10;99.90;;;;;;5052833;28;20414;-74
2022/01/28 18:09:16;;;;;;;0.40;0.30;;;3.00;99.90;;;;;;5057694;28;20381;-77
2022/01/28 18:11:42;;;;;;;0.70;0.60;;;3.00;99.90;;;;;;5060996;28;20439;-76
2022/01/28 18:14:07;;;;;;;0.40;0.20;;;2.90;99.90;;;;;;5041787;28;20808;-76
2022/01/28 18:16:33;;;;;;;0.40;0.30;;;2.90;99.90;;;;;;5059345;28;20674;-76
2022/01/28 18:18:59;;;;;;;0.60;0.60;;;2.80;99.90;;;;;;5045254;28;20390;-76
2022/01/28 18:21:25;;;;;;;0.40;0.30;;;2.80;99.90;;;;;;5059433;28;20385;-76
2022/01/28 18:23:51;;;;;;;1.40;1.30;;;2.70;99.90;;;;;;5040734;28;20386;-76
2022/01/28 18:26:17;;;;;;;4.25;0.85;;;2.70;99.90;;;;;;5058827;28;20488;-75
2022/01/28 18:28:43;;;;;;;0.50;0.40;;;2.70;99.90;;;;;;5061158;28;20451;-76
2022/01/28 18:31:09;;;;;;;0.40;0.30;;;2.60;99.90;;;;;;5061390;28;20378;-76
2022/01/28 18:33:35;;;;;;;0.40;0.30;;;2.50;99.90;;;;;;5054054;28;20408;-75
2022/01/28 18:36:01;;;;;;;0.40;0.30;;;2.60;99.90;;;;;;5061059;28;20384;-75
2022/01/28 18:38:27;;;;;;;0.40;0.30;;;2.60;99.90;;;;;;5058668;28;20397;-75
2022/01/28 18:40:54;;;;;;;0.40;0.30;;;2.70;99.90;;;;;;5058623;28;20386;-75